Time;durP1;ratioP1;P1;durP2;ratioP2;P2;SDS_P1;SDS_P2;PMS_P1;PMS_P2;Temp;Humidity;BMP_temperature;BMP_pressure;BME280_temperature;BME280_humidity;BME280_pressure;Samples;Min_cycle;Max_cycle;Signal;HPM_P1;HPM_P2
2022/09/11 00:01:02;;;;;;;16.33;14.25;;;15.10;99.90;;;;;;4977025;28;20057;-74
2022/09/11 00:03:28;;;;;;;18.33;15.07;;;15.10;99.90;;;;;;4992895;28;20073;-74
2022/09/11 00:05:54;;;;;;;16.40;14.70;;;15.10;99.90;;;;;;4976640;28;20117;-74
2022/09/11 00:08:20;;;;;;;17.48;15.65;;;15.10;99.90;;;;;;4976830;28;20125;-74
2022/09/11 00:10:47;;;;;;;17.90;15.98;;;15.10;99.90;;;;;;4960512;28;20049;-74
2022/09/11 00:13:20;;;;;;;14.20;12.80;;;15.00;99.90;;;;;;4976400;28;20569;-74
2022/09/11 00:15:46;;;;;;;;;;;15.10;99.90;;;;;;4976936;28;20056;-74
2022/09/11 00:18:14;;;;;;;15.57;14.00;;;14.90;99.90;;;;;;4976622;28;20020;-74
2022/09/11 00:20:50;;;;;;;17.05;15.35;;;14.90;99.90;;;;;;4976677;28;20038;-74
2022/09/11 00:23:17;;;;;;;18.10;15.55;;;15.00;99.90;;;;;;4976412;28;20498;-74
2022/09/11 00:25:45;;;;;;;18.52;16.73;;;14.90;99.90;;;;;;4976650;28;20042;-74
2022/09/11 00:28:14;;;;;;;19.60;17.60;;;15.00;99.90;;;;;;4960255;28;20034;-74
2022/09/11 00:30:42;;;;;;;20.77;18.58;;;14.90;99.90;;;;;;4976110;28;20426;-74
2022/09/11 00:33:08;;;;;;;16.17;14.57;;;14.90;99.90;;;;;;4976245;28;20038;-74
2022/09/11 00:35:34;;;;;;;17.88;16.08;;;15.00;99.90;;;;;;4976303;28;20507;-74
2022/09/11 00:37:59;;;;;;;18.60;16.77;;;14.90;99.90;;;;;;4976079;28;20038;-74
2022/09/11 00:40:25;;;;;;;18.38;16.58;;;14.90;99.90;;;;;;4976281;28;20038;-74
2022/09/11 00:42:54;;;;;;;18.58;15.63;;;14.90;99.90;;;;;;4976318;28;20165;-74
2022/09/11 00:45:26;;;;;;;18.88;16.88;;;14.90;99.90;;;;;;4976254;28;20043;-74
2022/09/11 00:47:57;;;;;;;19.63;17.30;;;14.90;99.90;;;;;;4960365;28;20498;-74
2022/09/11 00:50:27;;;;;;;20.58;18.48;;;14.80;99.90;;;;;;4976197;28;20491;-74
2022/09/11 00:53:00;;;;;;;20.75;18.65;;;14.80;99.90;;;;;;4976058;28;20419;-74
2022/09/11 00:55:31;;;;;;;20.23;18.20;;;14.80;99.90;;;;;;4976108;28;20466;-74
2022/09/11 00:58:11;;;;;;;19.88;17.88;;;14.70;99.90;;;;;;4976303;28;20045;-74
2022/09/11 01:00:41;;;;;;;18.70;16.35;;;14.70;99.90;;;;;;4976078;28;20409;-74
2022/09/11 01:03:07;;;;;;;20.75;18.50;;;14.70;99.90;;;;;;4976043;28;20046;-74
2022/09/11 01:05:35;;;;;;;23.70;19.42;;;14.70;99.90;;;;;;4976055;28;20054;-74
2022/09/11 01:08:02;;;;;;;25.95;21.35;;;14.60;99.90;;;;;;4959897;28;20038;-74
2022/09/11 01:10:49;;;;;;;22.50;20.13;;;14.60;99.90;;;;;;4960149;28;20046;-74
2022/09/11 01:13:36;;;;;;;23.95;20.02;;;14.60;99.90;;;;;;4976249;28;20049;-74
2022/09/11 01:16:23;;;;;;;19.08;17.08;;;14.60;99.90;;;;;;4976305;28;20514;-74
2022/09/11 01:19:19;;;;;;;14.95;13.40;;;14.60;99.90;;;;;;4976007;28;20038;-74
2022/09/11 01:22:16;;;;;;;13.63;12.02;;;14.50;99.90;;;;;;4975929;28;20038;-73
2022/09/11 01:25:11;;;;;;;13.80;12.30;;;14.40;99.90;;;;;;4976007;28;20565;-74
2022/09/11 01:28:14;;;;;;;15.57;13.90;;;14.40;99.90;;;;;;4975851;28;20565;-74
2022/09/11 01:30:49;;;;;;;16.13;14.43;;;14.30;99.90;;;;;;4899188;29;20226;-74
2022/09/11 01:33:38;;;;;;;18.83;17.02;;;14.30;99.90;;;;;;4898812;29;20600;-74
2022/09/11 01:36:24;;;;;;;16.30;14.60;;;14.40;99.90;;;;;;4898669;29;20048;-74
2022/09/11 01:38:56;;;;;;;12.65;11.52;;;14.30;99.90;;;;;;4904360;29;20059;-74
2022/09/11 01:41:34;;;;;;;12.55;11.27;;;14.30;99.90;;;;;;4899986;29;20048;-74
2022/09/11 01:44:12;;;;;;;12.93;11.60;;;14.30;99.90;;;;;;4902107;29;20044;-74
2022/09/11 01:46:43;;;;;;;12.60;11.50;;;14.30;99.90;;;;;;4901902;29;20052;-74
2022/09/11 01:49:20;;;;;;;11.77;10.77;;;14.20;99.90;;;;;;4901947;29;20072;-74
2022/09/11 01:51:51;;;;;;;11.73;10.68;;;14.20;99.90;;;;;;4886219;29;20151;-74
2022/09/11 01:54:21;;;;;;;12.57;11.38;;;14.20;99.90;;;;;;4901814;29;20048;-74
2022/09/11 01:56:54;;;;;;;11.63;10.43;;;14.20;99.90;;;;;;4902082;29;20048;-74
2022/09/11 01:59:26;;;;;;;10.05;9.25;;;14.20;99.90;;;;;;4901926;29;20192;-74
2022/09/11 02:01:58;;;;;;;10.40;9.50;;;14.10;99.90;;;;;;4902807;29;20199;-74
2022/09/11 02:04:30;;;;;;;11.48;10.48;;;14.10;99.90;;;;;;4934498;28;20050;-74
2022/09/11 02:07:09;;;;;;;12.48;11.27;;;14.10;99.90;;;;;;4978790;28;20125;-74
2022/09/11 02:09:40;;;;;;;14.48;12.90;;;14.10;99.90;;;;;;4995050;28;20058;-74
2022/09/11 02:12:10;;;;;;;12.65;11.48;;;14.10;99.90;;;;;;4978803;28;20184;-74
2022/09/11 02:14:40;;;;;;;12.98;11.65;;;14.10;99.90;;;;;;4962564;28;20034;-74
2022/09/11 02:17:25;;;;;;;15.38;13.68;;;14.10;99.90;;;;;;4962902;28;20035;-74
2022/09/11 02:19:55;;;;;;;13.10;11.90;;;14.10;99.90;;;;;;4962518;28;20042;-74
2022/09/11 02:22:22;;;;;;;13.02;11.82;;;14.10;99.90;;;;;;4978766;28;20521;-74
2022/09/11 02:24:48;;;;;;;13.98;12.68;;;14.10;99.90;;;;;;4978551;28;20128;-74
2022/09/11 02:27:19;;;;;;;14.82;13.38;;;14.00;99.90;;;;;;4978437;28;20077;-74
2022/09/11 02:29:45;;;;;;;13.20;12.00;;;14.00;99.90;;;;;;4978689;28;20469;-74
2022/09/11 02:32:11;;;;;;;14.48;13.18;;;14.00;99.90;;;;;;4978335;28;20602;-74
2022/09/11 02:34:38;;;;;;;14.35;13.05;;;14.00;99.90;;;;;;4978336;28;20038;-74
2022/09/11 02:37:20;;;;;;;12.57;11.48;;;14.00;99.90;;;;;;4978414;28;20121;-74
2022/09/11 02:39:48;;;;;;;11.68;10.68;;;14.10;99.90;;;;;;4962459;28;20064;-74
2022/09/11 02:42:34;;;;;;;11.23;10.23;;;14.00;99.90;;;;;;4978335;28;20129;-74
2022/09/11 02:45:15;;;;;;;11.90;10.80;;;14.10;99.90;;;;;;4978253;28;20042;-74
2022/09/11 02:48:10;;;;;;;13.18;11.98;;;14.10;99.90;;;;;;4978728;28;20042;-74
2022/09/11 02:50:42;;;;;;;14.30;12.55;;;14.00;99.90;;;;;;4978280;28;20410;-74
2022/09/11 02:53:34;;;;;;;12.73;11.63;;;14.00;99.90;;;;;;4977684;28;20038;-74
2022/09/11 02:56:30;;;;;;;10.70;9.65;;;14.00;99.90;;;;;;4959845;28;20066;-74
2022/09/11 02:59:00;;;;;;;8.80;8.00;;;14.00;99.90;;;;;;4941827;28;20058;-74
2022/09/11 03:01:26;;;;;;;7.50;6.90;;;13.90;99.90;;;;;;4961760;28;20038;-74
2022/09/11 03:03:51;;;;;;;8.45;7.65;;;13.90;99.90;;;;;;4961789;28;20045;-74
2022/09/11 03:06:22;;;;;;;8.13;7.43;;;13.90;99.90;;;;;;4977953;28;20042;-74
2022/09/11 03:08:48;;;;;;;10.13;9.23;;;13.90;99.90;;;;;;4977748;28;20045;-74
2022/09/11 03:11:14;;;;;;;12.85;11.55;;;13.80;99.90;;;;;;4977548;28;20392;-74
2022/09/11 03:13:40;;;;;;;10.35;9.45;;;13.80;99.90;;;;;;4977593;28;20045;-74
2022/09/11 03:16:06;;;;;;;9.00;8.10;;;13.80;99.90;;;;;;4977577;28;20045;-74
2022/09/11 03:18:32;;;;;;;9.27;8.43;;;13.80;99.90;;;;;;4977510;28;20068;-74
2022/09/11 03:20:59;;;;;;;6.40;5.85;;;13.70;99.90;;;;;;4977470;28;20042;-74
2022/09/11 03:23:26;;;;;;;8.88;8.07;;;13.70;99.90;;;;;;4977486;28;20487;-74
2022/09/11 03:25:52;;;;;;;60.85;11.38;;;13.70;99.90;;;;;;4977657;28;20084;-74
2022/09/11 03:28:17;;;;;;;117.63;11.07;;;13.70;99.90;;;;;;4977319;28;20447;-74
2022/09/11 03:30:43;;;;;;;26.25;10.15;;;13.70;99.90;;;;;;4977549;28;20038;-75
2022/09/11 03:33:08;;;;;;;15.23;10.30;;;13.70;99.90;;;;;;4961129;28;20411;-75
2022/09/11 03:35:34;;;;;;;36.38;9.73;;;13.60;99.90;;;;;;4977215;28;20419;-75
2022/09/11 03:38:00;;;;;;;10.30;9.32;;;13.60;99.90;;;;;;4976971;28;20034;-74
2022/09/11 03:40:26;;;;;;;9.35;8.55;;;13.60;99.90;;;;;;4961316;28;20073;-74
2022/09/11 03:42:52;;;;;;;11.15;10.15;;;13.60;99.90;;;;;;4977097;28;20046;-74
2022/09/11 03:45:18;;;;;;;22.55;13.85;;;13.70;99.90;;;;;;4977057;28;20116;-74
2022/09/11 03:47:44;;;;;;;14.48;12.40;;;13.70;99.90;;;;;;4976927;28;20034;-74
2022/09/11 03:50:11;;;;;;;13.23;11.98;;;13.70;99.90;;;;;;4977003;28;20097;-74
2022/09/11 03:52:37;;;;;;;14.55;13.05;;;13.70;99.90;;;;;;4976868;28;20089;-74
2022/09/11 03:55:04;;;;;;;12.80;11.60;;;13.70;99.90;;;;;;4976883;28;20054;-74
2022/09/11 03:57:34;;;;;;;13.35;11.95;;;13.70;99.90;;;;;;4976813;28;20034;-75
2022/09/11 04:00:00;;;;;;;11.88;10.77;;;13.70;99.90;;;;;;4961030;28;20038;-74
2022/09/11 04:02:26;;;;;;;14.23;12.82;;;13.70;99.90;;;;;;4976879;28;20129;-74
2022/09/11 04:04:51;;;;;;;13.75;12.35;;;13.70;99.90;;;;;;4976969;28;20078;-74
2022/09/11 04:07:17;;;;;;;13.13;11.82;;;13.70;99.90;;;;;;4976726;28;20050;-74
2022/09/11 04:09:42;;;;;;;13.50;12.10;;;13.70;99.90;;;;;;4976975;28;20054;-74
2022/09/11 04:12:08;;;;;;;15.63;14.10;;;13.60;99.90;;;;;;4976729;28;20461;-74
2022/09/11 04:14:33;;;;;;;13.30;12.00;;;13.60;99.90;;;;;;4976622;28;20499;-74
2022/09/11 04:16:59;;;;;;;11.48;10.48;;;13.60;99.90;;;;;;4976570;28;20038;-74
2022/09/11 04:19:24;;;;;;;10.95;10.05;;;13.60;99.90;;;;;;4976801;28;20042;-74
2022/09/11 04:21:50;;;;;;;9.40;8.60;;;13.50;99.90;;;;;;4976866;28;20503;-74
2022/09/11 04:24:16;;;;;;;9.75;8.85;;;13.50;99.90;;;;;;4960712;28;20522;-74
2022/09/11 04:26:41;;;;;;;9.57;8.77;;;13.50;99.90;;;;;;4960586;28;20499;-74
2022/09/11 04:29:07;;;;;;;10.82;9.75;;;13.50;99.90;;;;;;4976522;28;20388;-74
2022/09/11 04:31:34;;;;;;;9.32;8.48;;;13.50;99.90;;;;;;4976567;28;20046;-74
2022/09/11 04:34:00;;;;;;;8.65;7.75;;;13.60;99.90;;;;;;4976473;28;20050;-74
2022/09/11 04:36:28;;;;;;;9.30;8.50;;;13.50;99.90;;;;;;4960148;28;20035;-74
2022/09/11 04:38:56;;;;;;;10.43;9.43;;;13.50;99.90;;;;;;4976280;28;20080;-74
2022/09/11 04:41:23;;;;;;;11.75;9.85;;;13.50;99.90;;;;;;4976558;28;20125;-74
2022/09/11 04:43:52;;;;;;;9.65;8.82;;;13.50;99.90;;;;;;4976304;28;20035;-74
2022/09/11 04:46:18;;;;;;;10.93;9.63;;;13.50;99.90;;;;;;4960511;28;20034;-74
2022/09/11 04:48:45;;;;;;;10.20;9.30;;;13.50;99.90;;;;;;4976213;28;20491;-74
2022/09/11 04:51:22;;;;;;;11.70;10.63;;;13.60;99.90;;;;;;4976037;28;20047;-74
2022/09/11 04:53:49;;;;;;;10.60;9.57;;;13.60;99.90;;;;;;4976223;28;20458;-74
2022/09/11 04:56:15;;;;;;;9.50;8.65;;;13.50;99.90;;;;;;4976144;28;20045;-73
2022/09/11 04:58:44;;;;;;;10.50;8.85;;;13.60;99.90;;;;;;4976448;28;20052;-74
2022/09/11 05:01:12;;;;;;;10.68;9.68;;;13.60;99.90;;;;;;4976338;28;20510;-74
2022/09/11 05:03:39;;;;;;;11.50;10.48;;;13.60;99.90;;;;;;4960160;28;20084;-74
2022/09/11 05:06:06;;;;;;;11.75;10.57;;;13.60;99.90;;;;;;4976373;28;20046;-74
2022/09/11 05:08:32;;;;;;;10.57;9.57;;;13.60;99.90;;;;;;4975987;28;20086;-74
2022/09/11 05:10:59;;;;;;;12.88;10.25;;;13.60;99.90;;;;;;4976071;28;20064;-74
2022/09/11 05:13:25;;;;;;;12.25;11.15;;;13.60;99.90;;;;;;4975964;28;20046;-74
2022/09/11 05:15:51;;;;;;;10.55;9.55;;;13.70;99.90;;;;;;4992760;28;20053;-74
2022/09/11 05:18:16;;;;;;;11.80;10.80;;;13.60;99.90;;;;;;4979764;28;20038;-74
2022/09/11 05:20:42;;;;;;;11.02;10.00;;;13.70;99.90;;;;;;4979773;28;20034;-74
2022/09/11 05:23:11;;;;;;;10.68;9.75;;;13.70;99.90;;;;;;4979683;28;20048;-74
2022/09/11 05:25:36;;;;;;;11.02;9.93;;;13.70;99.90;;;;;;4979668;28;20042;-74
2022/09/11 05:28:03;;;;;;;11.93;10.38;;;13.70;99.90;;;;;;4979478;28;20054;-74
2022/09/11 05:30:29;;;;;;;11.13;10.13;;;13.70;99.90;;;;;;4979537;28;20088;-74
2022/09/11 05:32:55;;;;;;;9.93;8.93;;;13.70;99.90;;;;;;4979485;28;20074;-74
2022/09/11 05:35:23;;;;;;;9.90;9.00;;;13.70;99.90;;;;;;4979456;28;20039;-74
2022/09/11 05:37:49;;;;;;;10.90;9.80;;;13.80;99.90;;;;;;4979189;28;20035;-74
2022/09/11 05:40:15;;;;;;;12.23;10.93;;;13.80;99.90;;;;;;4979531;28;20145;-73
2022/09/11 05:42:40;;;;;;;11.70;10.55;;;13.80;99.90;;;;;;4979288;28;20388;-74
2022/09/11 05:45:07;;;;;;;12.93;11.70;;;13.90;99.90;;;;;;4979296;28;20129;-74
2022/09/11 05:47:32;;;;;;;13.05;11.73;;;13.90;99.90;;;;;;4979137;28;20073;-74
2022/09/11 05:49:58;;;;;;;12.52;11.25;;;13.80;99.90;;;;;;4979174;28;20078;-74
2022/09/11 05:52:24;;;;;;;13.07;11.73;;;13.80;99.90;;;;;;4962961;28;20038;-74
2022/09/11 05:54:51;;;;;;;12.85;11.63;;;13.80;99.90;;;;;;4979097;28;20046;-74
2022/09/11 05:57:18;;;;;;;12.32;11.23;;;13.80;99.90;;;;;;4995185;28;20503;-74
2022/09/11 05:59:44;;;;;;;13.82;12.32;;;13.90;99.90;;;;;;4978984;28;20042;-74
2022/09/11 06:02:10;;;;;;;13.07;11.82;;;13.90;99.90;;;;;;4978903;28;20042;-74
2022/09/11 06:04:36;;;;;;;12.07;10.98;;;14.00;99.90;;;;;;4979096;28;20038;-74
2022/09/11 06:07:01;;;;;;;12.38;11.18;;;14.10;99.90;;;;;;4979011;28;20046;-74
2022/09/11 06:09:30;;;;;;;11.82;10.60;;;14.10;99.90;;;;;;4979023;28;20418;-74
2022/09/11 06:11:55;;;;;;;13.13;11.88;;;14.20;99.90;;;;;;4978823;28;20035;-74
2022/09/11 06:14:21;;;;;;;12.85;11.65;;;14.20;99.90;;;;;;4979019;28;20518;-74
2022/09/11 06:16:47;;;;;;;13.32;11.93;;;14.30;99.90;;;;;;4962619;28;20487;-74
2022/09/11 06:19:12;;;;;;;13.88;12.57;;;14.30;99.90;;;;;;4978657;28;20148;-74
2022/09/11 06:21:39;;;;;;;13.60;12.30;;;14.30;99.90;;;;;;4962532;28;20050;-74
2022/09/11 06:24:05;;;;;;;13.63;12.32;;;14.30;99.90;;;;;;4978533;28;20077;-74
2022/09/11 06:26:31;;;;;;;12.98;11.68;;;14.40;99.90;;;;;;4978164;28;20077;-74
2022/09/11 06:28:57;;;;;;;12.88;11.63;;;14.50;99.90;;;;;;4978456;28;20414;-74
2022/09/11 06:31:25;;;;;;;15.55;13.95;;;14.50;99.90;;;;;;4962277;28;20039;-74
2022/09/11 06:33:51;;;;;;;15.20;12.77;;;14.60;99.90;;;;;;4978650;28;20113;-74
2022/09/11 06:36:19;;;;;;;15.45;13.82;;;14.70;99.90;;;;;;4978246;28;20528;-74
2022/09/11 06:38:46;;;;;;;15.90;14.25;;;14.80;99.90;;;;;;4978121;28;20514;-74
2022/09/11 06:41:15;;;;;;;15.70;14.10;;;14.90;99.90;;;;;;4978245;28;20038;-74
2022/09/11 06:43:42;;;;;;;16.17;13.95;;;14.90;99.90;;;;;;4978394;28;20070;-74
2022/09/11 06:46:16;;;;;;;15.80;14.13;;;15.00;99.90;;;;;;4978135;28;20046;-74
2022/09/11 06:48:44;;;;;;;18.45;14.90;;;15.10;99.90;;;;;;4978126;28;20038;-74
2022/09/11 06:51:11;;;;;;;15.10;13.60;;;15.10;99.90;;;;;;4977957;28;20045;-74
2022/09/11 06:53:39;;;;;;;17.25;14.70;;;15.20;99.90;;;;;;4978257;28;20574;-74
2022/09/11 06:56:06;;;;;;;15.10;13.50;;;15.30;99.90;;;;;;4978253;28;20046;-74
2022/09/11 06:58:32;;;;;;;16.80;15.00;;;15.30;99.90;;;;;;4978076;28;20034;-74
2022/09/11 07:01:02;;;;;;;15.80;14.10;;;15.50;99.90;;;;;;4961715;28;20038;-74
2022/09/11 07:03:28;;;;;;;15.77;14.18;;;15.50;99.90;;;;;;4977937;28;20038;-70
2022/09/11 07:05:53;;;;;;;16.92;14.68;;;15.60;99.90;;;;;;4978195;28;20101;-70
2022/09/11 07:08:19;;;;;;;16.33;14.35;;;15.60;99.90;;;;;;4977757;28;20499;-71
2022/09/11 07:10:44;;;;;;;15.38;13.80;;;15.70;99.90;;;;;;4978007;28;20038;-71
2022/09/11 07:13:10;;;;;;;17.98;13.85;;;15.80;99.90;;;;;;4977747;28;20042;-71
2022/09/11 07:15:36;;;;;;;15.95;12.95;;;15.90;99.90;;;;;;4977696;28;20521;-71
2022/09/11 07:18:02;;;;;;;15.35;12.35;;;15.90;99.90;;;;;;4977889;28;20097;-71
2022/09/11 07:20:27;;;;;;;14.90;13.32;;;16.00;99.90;;;;;;4977803;28;20049;-71
2022/09/11 07:22:53;;;;;;;14.05;12.65;;;16.00;99.90;;;;;;4977487;28;20499;-71
2022/09/11 07:25:19;;;;;;;14.23;12.82;;;16.10;99.90;;;;;;4977696;28;20135;-71
2022/09/11 07:27:44;;;;;;;16.52;12.65;;;16.20;99.90;;;;;;4977460;28;20046;-71
2022/09/11 07:30:11;;;;;;;15.25;12.90;;;16.30;99.90;;;;;;4977361;28;20129;-71
2022/09/11 07:32:36;;;;;;;17.05;13.70;;;16.30;99.90;;;;;;4977290;28;20081;-71
2022/09/11 07:35:03;;;;;;;14.90;13.32;;;16.40;99.90;;;;;;4977259;28;20070;-71
2022/09/11 07:37:29;;;;;;;14.43;12.82;;;16.50;99.90;;;;;;4977136;28;20034;-71
2022/09/11 07:39:56;;;;;;;18.58;14.48;;;16.60;99.90;;;;;;4960515;28;20503;-71
2022/09/11 07:42:21;;;;;;;14.13;12.57;;;16.70;99.90;;;;;;4977199;28;20129;-71
2022/09/11 07:44:47;;;;;;;13.70;12.30;;;16.80;99.90;;;;;;4993274;28;20050;-71
2022/09/11 07:47:13;;;;;;;14.07;12.52;;;16.90;99.90;;;;;;4976968;28;20057;-71
2022/09/11 07:49:39;;;;;;;18.08;11.88;;;17.00;99.90;;;;;;4977120;28;20124;-71
2022/09/11 07:52:04;;;;;;;12.40;11.10;;;17.10;99.90;;;;;;4976942;28;20077;-71
2022/09/11 07:54:30;;;;;;;11.52;10.23;;;17.20;99.90;;;;;;4994571;28;20081;-71
2022/09/11 07:56:56;;;;;;;11.57;10.38;;;17.40;99.90;;;;;;4977139;28;20050;-71
2022/09/11 07:59:23;;;;;;;12.35;11.07;;;17.50;99.90;;;;;;4994550;28;20038;-71
2022/09/11 08:01:49;;;;;;;11.52;9.65;;;17.60;99.90;;;;;;4976727;28;20403;-71
2022/09/11 08:04:15;;;;;;;13.57;10.02;;;17.80;99.90;;;;;;4976744;28;20467;-71
2022/09/11 08:06:41;;;;;;;11.90;9.52;;;17.90;99.90;;;;;;4994717;28;20488;-71
2022/09/11 08:09:11;;;;;;;14.73;8.93;;;18.00;99.90;;;;;;4976882;28;20038;-71
2022/09/11 08:11:41;;;;;;;9.23;8.25;;;18.10;99.90;;;;;;4976699;28;20081;-71
2022/09/11 08:14:10;;;;;;;9.02;7.80;;;18.20;99.90;;;;;;4977756;28;20042;-71
2022/09/11 08:16:36;;;;;;;12.18;9.25;;;18.40;99.90;;;;;;4976845;28;20064;-71
2022/09/11 08:19:05;;;;;;;12.68;8.90;;;18.60;99.90;;;;;;4976447;28;20415;-70
2022/09/11 08:21:31;;;;;;;11.20;7.55;;;18.70;99.90;;;;;;4976580;28;20042;-71
2022/09/11 08:23:57;;;;;;;6.78;6.07;;;18.90;99.90;;;;;;4960753;28;20034;-71
2022/09/11 08:26:25;;;;;;;8.00;5.90;;;19.00;99.90;;;;;;4976723;28;20050;-71
2022/09/11 08:28:53;;;;;;;9.18;4.93;;;19.20;99.90;;;;;;4976483;28;20038;-70
2022/09/11 08:31:21;;;;;;;6.97;4.78;;;19.30;99.90;;;;;;4976655;28;20089;-71
2022/09/11 08:33:48;;;;;;;5.35;3.72;;;19.30;99.90;;;;;;4994140;28;20046;-71
2022/09/11 08:36:14;;;;;;;6.57;3.90;;;19.50;99.90;;;;;;4976504;28;20052;-71
2022/09/11 08:38:40;;;;;;;8.00;4.50;;;19.80;99.90;;;;;;4976581;28;20101;-71
2022/09/11 08:41:18;;;;;;;4.97;2.95;;;20.10;99.90;;;;;;4960227;28;20042;-74
2022/09/11 08:43:51;;;;;;;6.45;3.40;;;20.10;99.90;;;;;;4976509;28;20522;-74
2022/09/11 08:46:22;;;;;;;6.03;3.30;;;20.20;99.90;;;;;;4960430;28;20042;-73
2022/09/11 08:49:03;;;;;;;4.88;3.00;;;20.40;99.90;;;;;;4976477;28;20129;-73
2022/09/11 08:51:32;;;;;;;8.20;2.75;;;20.70;99.90;;;;;;4979747;28;20455;-73
2022/09/11 08:54:00;;;;;;;5.80;2.08;;;20.80;99.90;;;;;;4980218;28;20093;-73
2022/09/11 08:56:29;;;;;;;5.30;2.17;;;20.90;99.90;;;;;;4980109;28;20046;-73
2022/09/11 08:59:09;;;;;;;4.68;2.20;;;20.90;99.90;;;;;;4980100;28;20462;-73
2022/09/11 09:01:40;;;;;;;5.75;2.10;;;20.90;99.90;;;;;;4980088;28;20038;-73
2022/09/11 09:04:40;;;;;;;5.78;2.20;;;20.90;99.90;;;;;;4980299;28;20074;-73
2022/09/11 09:07:15;;;;;;;5.10;1.73;;;21.00;99.90;;;;;;4979900;28;20088;-74
2022/09/11 09:10:21;;;;;;;5.68;1.90;;;20.90;99.90;;;;;;4980031;28;20109;-74
2022/09/11 09:13:20;;;;;;;4.15;1.92;;;20.90;99.90;;;;;;4979765;28;20038;-74
2022/09/11 09:16:04;;;;;;;6.22;2.20;;;20.90;99.90;;;;;;4980965;28;20073;-74
2022/09/11 09:18:38;;;;;;;4.57;2.17;;;21.40;99.90;;;;;;4979687;28;20045;-74
2022/09/11 09:21:14;;;;;;;8.63;3.25;;;21.90;99.90;;;;;;4979970;28;20050;-74
2022/09/11 09:24:03;;;;;;;5.78;2.58;;;22.20;99.90;;;;;;4979662;28;20499;-74
2022/09/11 09:26:34;;;;;;;4.95;2.13;;;22.40;99.90;;;;;;4979834;28;20134;-74
2022/09/11 09:29:03;;;;;;;5.82;2.55;;;22.40;99.90;;;;;;4979593;28;20499;-74
2022/09/11 09:31:32;;;;;;;6.90;2.45;;;22.30;99.90;;;;;;4979669;28;20046;-74
2022/09/11 09:34:08;;;;;;;5.70;1.75;;;22.00;99.90;;;;;;4979551;28;20042;-74
2022/09/11 09:36:38;;;;;;;4.53;1.80;;;21.80;99.90;;;;;;4963269;28;20038;-74
2022/09/11 09:39:11;;;;;;;3.90;1.75;;;21.60;99.90;;;;;;4963281;28;20517;-74
2022/09/11 09:42:18;;;;;;;5.50;1.80;;;21.50;99.90;;;;;;4979584;28;20077;-74
2022/09/11 09:45:00;;;;;;;4.75;1.75;;;22.00;99.90;;;;;;4883377;29;20221;-74
2022/09/11 09:47:26;;;;;;;5.35;1.88;;;22.40;99.90;;;;;;4883140;29;20070;-75
2022/09/11 09:49:52;;;;;;;4.78;1.50;;;22.90;99.90;;;;;;4883339;29;20108;-75
2022/09/11 09:52:23;;;;;;;3.88;1.27;;;23.30;99.90;;;;;;4898687;29;20115;-75
2022/09/11 09:54:58;;;;;;;3.30;1.48;;;23.80;99.90;;;;;;4867935;29;20092;-75
2022/09/11 09:57:30;;;;;;;5.10;1.50;;;24.20;99.90;;;;;;4882995;29;20053;-75
2022/09/11 10:00:05;;;;;;;4.47;1.30;;;24.60;99.90;;;;;;4883041;29;20083;-75
2022/09/11 10:02:53;;;;;;;3.95;1.40;;;24.80;99.90;;;;;;4882469;29;20488;-75
2022/09/11 10:05:39;;;;;;;3.40;0.95;;;25.10;99.90;;;;;;4867528;29;20144;-75
2022/09/11 10:08:24;;;;;;;3.72;1.40;;;25.30;99.90;;;;;;4882882;29;20049;-75
2022/09/11 10:11:01;;;;;;;3.65;1.10;;;25.20;99.80;;;;;;4882918;29;20080;-74
2022/09/11 10:13:30;;;;;;;4.75;1.30;;;24.90;99.90;;;;;;4882774;29;20051;-75
2022/09/11 10:16:00;;;;;;;3.08;1.30;;;24.40;99.90;;;;;;4882961;29;20156;-75
2022/09/11 10:18:32;;;;;;;3.58;1.05;;;24.00;99.90;;;;;;4882914;29;20055;-75
2022/09/11 10:21:21;;;;;;;4.50;0.98;;;23.70;99.90;;;;;;4918641;28;20051;-75
2022/09/11 10:23:50;;;;;;;7.05;1.20;;;23.60;99.90;;;;;;4978626;28;20065;-75
2022/09/11 10:26:31;;;;;;;4.47;1.17;;;23.90;99.90;;;;;;4962430;28;20046;-75
2022/09/11 10:29:43;;;;;;;5.07;1.20;;;24.60;99.90;;;;;;4978540;28;20124;-75
2022/09/11 10:32:16;;;;;;;3.38;0.90;;;25.10;99.90;;;;;;4959030;28;20421;-75
2022/09/11 10:34:42;;;;;;;3.05;0.70;;;25.70;96.60;;;;;;4978413;28;20117;-75
2022/09/11 10:37:14;;;;;;;2.85;1.00;;;26.00;91.60;;;;;;4978187;28;20044;-74
2022/09/11 10:39:42;;;;;;;3.83;1.17;;;26.30;85.60;;;;;;4978274;28;20049;-75
2022/09/11 10:42:17;;;;;;;3.10;0.90;;;26.60;83.30;;;;;;4962228;28;20125;-75
2022/09/11 10:44:44;;;;;;;3.53;1.00;;;26.60;85.70;;;;;;4978234;28;20049;-75
2022/09/11 10:47:22;;;;;;;3.63;1.08;;;26.70;78.10;;;;;;4978067;28;20085;-75
2022/09/11 10:49:48;;;;;;;2.17;0.80;;;26.50;76.90;;;;;;4978064;28;20499;-73
2022/09/11 10:52:14;;;;;;;2.30;0.85;;;26.00;77.70;;;;;;4978145;28;20055;-73
2022/09/11 10:54:58;;;;;;;3.67;0.80;;;25.90;75.80;;;;;;4978245;28;20406;-73
2022/09/11 10:57:40;;;;;;;2.15;0.70;;;26.20;72.10;;;;;;4977848;28;20476;-73
2022/09/11 11:00:13;;;;;;;2.65;0.77;;;26.50;71.70;;;;;;4978109;28;20376;-73
2022/09/11 11:02:44;;;;;;;2.85;0.88;;;26.80;72.70;;;;;;4977920;28;20057;-73
2022/09/11 11:05:19;;;;;;;4.78;1.40;;;27.20;72.30;;;;;;4977822;28;20129;-73
2022/09/11 11:08:03;;;;;;;3.95;1.02;;;27.50;73.00;;;;;;4977993;28;20061;-73
2022/09/11 11:10:59;;;;;;;3.65;1.00;;;27.70;73.90;;;;;;4977718;28;20053;-73
2022/09/11 11:13:28;;;;;;;3.85;0.85;;;28.00;70.60;;;;;;4935774;28;20073;-73
2022/09/11 11:16:05;;;;;;;4.03;0.90;;;27.80;66.40;;;;;;4977833;28;20272;-73
2022/09/11 11:18:47;;;;;;;1.75;0.50;;;27.30;67.30;;;;;;4977767;28;20046;-73
2022/09/11 11:21:26;;;;;;;3.88;0.95;;;26.80;69.20;;;;;;4977878;28;20078;-73
2022/09/11 11:23:54;;;;;;;2.95;0.73;;;26.30;70.50;;;;;;4977470;28;20085;-73
2022/09/11 11:26:22;;;;;;;2.83;0.90;;;26.00;73.30;;;;;;4977791;28;20392;-73
2022/09/11 11:29:27;;;;;;;3.25;1.05;;;25.80;74.60;;;;;;4977269;28;20521;-73
2022/09/11 11:32:35;;;;;;;3.03;1.00;;;25.80;77.10;;;;;;4977252;28;20073;-73
2022/09/11 11:35:19;;;;;;;2.60;1.20;;;25.60;78.10;;;;;;4977163;28;20039;-73
2022/09/11 11:37:48;;;;;;;3.20;1.23;;;25.30;83.70;;;;;;4976845;28;20050;-73
2022/09/11 11:40:38;;;;;;;4.78;1.20;;;25.00;84.80;;;;;;4977179;28;20042;-73
2022/09/11 11:43:10;;;;;;;5.60;1.33;;;24.80;89.10;;;;;;4977395;28;20242;-73
2022/09/11 11:45:47;;;;;;;;;;;24.50;91.80;;;;;;4977716;28;20100;-73
2022/09/11 11:48:34;;;;;;;4.05;1.40;;;24.20;93.90;;;;;;4976897;28;19917;-73
2022/09/11 11:51:06;;;;;;;4.90;1.38;;;24.00;95.30;;;;;;4977022;28;20046;-73
2022/09/11 11:53:39;;;;;;;4.82;1.23;;;23.90;96.50;;;;;;4976882;28;20108;-73
2022/09/11 11:56:23;;;;;;;2.90;1.15;;;23.70;98.70;;;;;;4977168;28;20077;-73
2022/09/11 11:58:59;;;;;;;2.97;1.23;;;23.60;99.90;;;;;;4977087;28;20061;-73
2022/09/11 12:01:42;;;;;;;4.22;1.67;;;23.50;99.90;;;;;;4976821;28;20046;-73
2022/09/11 12:04:36;;;;;;;3.50;1.40;;;23.50;99.90;;;;;;4976725;28;20042;-73
2022/09/11 12:07:03;;;;;;;3.50;1.27;;;23.40;99.90;;;;;;4976615;28;20066;-73
2022/09/11 12:09:30;;;;;;;5.18;1.27;;;23.40;99.90;;;;;;4976590;28;20038;-73
2022/09/11 12:12:04;;;;;;;6.15;0.95;;;23.30;99.90;;;;;;4976568;28;20085;-73
2022/09/11 12:14:32;;;;;;;3.00;1.38;;;23.40;99.90;;;;;;4976659;28;20038;-73
2022/09/11 12:17:17;;;;;;;4.57;1.15;;;23.50;99.90;;;;;;4976418;28;20048;-73
2022/09/11 12:20:10;;;;;;;3.10;1.08;;;24.00;98.80;;;;;;4976596;28;20092;-73
2022/09/11 12:22:43;;;;;;;3.35;1.00;;;24.40;93.70;;;;;;4976337;28;20058;-73
2022/09/11 12:25:18;;;;;;;3.58;1.10;;;24.90;93.40;;;;;;4976272;28;20068;-72
2022/09/11 12:27:53;;;;;;;4.55;1.52;;;25.20;91.00;;;;;;4976465;28;20045;-72
2022/09/11 12:30:21;;;;;;;3.28;1.02;;;25.70;87.50;;;;;;4976428;28;20045;-73
2022/09/11 12:32:51;;;;;;;2.88;0.90;;;26.10;88.50;;;;;;4976196;28;20081;-73
2022/09/11 12:35:49;;;;;;;3.20;0.95;;;26.30;90.30;;;;;;4976354;28;20483;-73
2022/09/11 12:38:36;;;;;;;2.75;1.00;;;26.40;90.00;;;;;;4963615;28;20086;-73
2022/09/11 12:41:11;;;;;;;2.97;1.40;;;26.30;88.50;;;;;;4993714;28;20046;-73
2022/09/11 12:43:40;;;;;;;3.45;0.90;;;26.10;89.90;;;;;;4960400;28;20042;-73
2022/09/11 12:46:21;;;;;;;2.88;1.20;;;25.80;89.10;;;;;;4976198;28;20053;-73
2022/09/11 12:48:58;;;;;;;4.78;1.10;;;26.10;93.10;;;;;;4976213;28;20050;-73
2022/09/11 12:51:32;;;;;;;3.85;1.00;;;26.50;92.20;;;;;;4976247;28;20122;-74
2022/09/11 12:54:00;;;;;;;3.40;1.30;;;26.90;89.20;;;;;;4976413;28;20132;-74
2022/09/11 12:56:29;;;;;;;2.38;1.30;;;26.90;85.90;;;;;;4959957;28;20049;-74
2022/09/11 12:58:59;;;;;;;3.65;1.17;;;26.80;86.80;;;;;;4976038;28;20198;-74